Time;durP1;ratioP1;P1;durP2;ratioP2;P2;SDS_P1;SDS_P2;PMS_P1;PMS_P2;Temp;Humidity;BMP_temperature;BMP_pressure;BME280_temperature;BME280_humidity;BME280_pressure;Samples;Min_cycle;Max_cycle;Signal;HPM_P1;HPM_P2
2022/01/11 04:25:59;;;;;;;1.10;1.10;;;;;;;-9.10;79.16;99914.88;5778727;23;20148;-86
2022/01/11 04:28:28;;;;;;;0.93;0.93;;;;;;;-9.10;79.11;99912.25;5033478;28;20448;-86
2022/01/11 04:31:02;;;;;;;1.17;1.15;;;;;;;-9.05;79.24;99920.66;5034679;28;20063;-87
2022/01/11 04:33:32;;;;;;;1.23;1.20;;;;;;;-9.02;79.56;99925.69;5040519;28;20063;-85
2022/01/11 04:36:24;;;;;;;1.10;1.10;;;;;;;-9.02;79.65;99921.28;5054408;28;20482;-85
2022/01/11 04:38:52;;;;;;;0.70;0.70;;;;;;;-9.04;78.80;99917.09;5034321;28;20084;-85
2022/01/11 04:41:19;;;;;;;1.23;1.20;;;;;;;-9.11;78.90;99926.25;5052488;28;20094;-85
2022/01/11 04:43:50;;;;;;;1.40;1.30;;;;;;;-9.14;78.84;99926.44;5033864;28;20063;-85
2022/01/11 04:46:18;;;;;;;0.95;0.95;;;;;;;-9.16;78.76;99937.84;5051665;28;20053;-85
2022/01/11 04:48:51;;;;;;;1.08;1.08;;;;;;;-9.22;78.55;99945.22;5033919;28;20117;-86
2022/01/11 04:51:20;;;;;;;1.00;1.00;;;;;;;-9.26;78.79;99938.53;5038554;28;20045;-85
2022/01/11 04:53:48;;;;;;;0.82;0.82;;;;;;;-9.27;78.74;99945.50;5021953;28;20140;-86
2022/01/11 04:56:17;;;;;;;0.90;0.90;;;;;;;-9.34;78.90;99939.00;5038780;28;20049;-87
2022/01/11 04:58:44;;;;;;;1.17;1.13;;;;;;;-9.29;79.24;99949.16;5055122;28;20049;-88
2022/01/11 05:01:12;;;;;;;0.93;0.93;;;;;;;-9.31;79.12;99943.22;5020034;28;20049;-85
2022/01/11 05:03:41;;;;;;;0.80;0.80;;;;;;;-9.30;78.73;99956.16;5035958;28;20049;-85
2022/01/11 05:06:08;;;;;;;1.10;1.10;;;;;;;-9.40;78.84;99944.59;5053343;28;20176;-84
2022/01/11 05:08:38;;;;;;;1.00;1.00;;;;;;;-9.42;78.59;99959.53;5036511;28;20151;-86
2022/01/11 05:11:07;;;;;;;0.90;0.90;;;;;;;-9.55;78.08;99966.47;5024865;28;20045;-86
2022/01/11 05:13:35;;;;;;;1.25;1.20;;;;;;;-9.60;78.44;99966.72;5035990;28;20510;-85
2022/01/11 05:16:09;;;;;;;1.00;1.00;;;;;;;-9.61;78.68;99958.06;5026472;28;20458;-86
2022/01/11 05:18:37;;;;;;;1.00;1.00;;;;;;;-9.68;78.37;99964.56;5019846;28;20059;-85
2022/01/11 05:21:05;;;;;;;1.10;1.10;;;;;;;-9.69;78.54;99965.53;5027185;28;20049;-85
2022/01/11 05:23:34;;;;;;;1.05;1.05;;;;;;;-9.67;78.64;99974.13;5050740;28;20041;-85
2022/01/11 05:26:02;;;;;;;1.08;1.08;;;;;;;-9.64;78.99;99965.25;5052852;28;20053;-85
2022/01/11 05:28:30;;;;;;;1.00;1.00;;;;;;;-9.63;79.04;99967.75;5032717;28;20064;-84
2022/01/11 05:30:57;;;;;;;0.88;0.88;;;;;;;-9.58;78.92;99984.94;5052335;28;20195;-84
2022/01/11 05:33:24;;;;;;;1.17;1.15;;;;;;;-9.62;78.88;99979.03;5035503;28;20506;-84
2022/01/11 05:35:52;;;;;;;1.00;1.00;;;;;;;-9.69;78.84;99988.22;5035597;28;20061;-87
2022/01/11 05:38:19;;;;;;;1.00;1.00;;;;;;;-9.74;78.75;99983.25;5036811;28;20049;-86
2022/01/11 05:40:47;;;;;;;0.82;0.82;;;;;;;-9.78;78.61;99992.19;5022126;28;20044;-85
2022/01/11 05:43:14;;;;;;;1.10;1.10;;;;;;;-9.80;78.93;99986.22;5030071;28;20049;-86
2022/01/11 05:45:43;;;;;;;1.10;1.10;;;;;;;-9.80;78.94;100001.88;5042992;28;20191;-87
2022/01/11 05:48:11;;;;;;;1.10;1.10;;;;;;;-9.85;78.75;99998.69;5016901;28;20052;-85
2022/01/11 05:50:39;;;;;;;1.00;1.00;;;;;;;-9.84;78.92;99997.78;5014176;28;20460;-84
2022/01/11 05:53:08;;;;;;;1.10;1.10;;;;;;;-9.86;78.75;99994.41;5032307;28;20052;-86
2022/01/11 05:55:35;;;;;;;1.10;1.10;;;;;;;-9.91;78.47;99999.06;5024136;28;20041;-83
2022/01/11 05:58:03;;;;;;;1.27;1.20;;;;;;;-9.98;78.38;100011.66;5023327;28;20049;-85
2022/01/11 06:00:30;;;;;;;1.30;1.20;;;;;;;-9.95;78.56;100002.78;5030243;28;20550;-85
2022/01/11 06:02:58;;;;;;;1.10;1.10;;;;;;;-9.94;78.18;100014.94;5030645;28;20462;-85
2022/01/11 06:05:38;;;;;;;1.10;1.10;;;;;;;-9.98;77.94;100016.03;5044043;28;20056;-85
2022/01/11 06:08:09;;;;;;;1.00;1.00;;;;;;;-10.04;77.82;100020.69;5058145;28;20052;-87
2022/01/11 06:10:37;;;;;;;1.05;1.05;;;;;;;-10.04;77.32;100023.28;5034792;28;20049;-85
2022/01/11 06:13:04;;;;;;;0.90;0.90;;;;;;;-10.11;77.56;100024.56;5040515;28;20045;-86
2022/01/11 06:15:33;;;;;;;1.00;1.00;;;;;;;-10.06;77.66;100027.75;5052599;28;20057;-85
2022/01/11 06:18:04;;;;;;;1.02;1.02;;;;;;;-10.01;77.38;100031.88;5029143;28;20057;-84
2022/01/11 06:20:36;;;;;;;1.33;1.23;;;;;;;-10.07;77.16;100040.91;5014604;28;20049;-83
2022/01/11 06:23:03;;;;;;;1.33;1.23;;;;;;;-10.07;77.29;100043.53;5032302;28;20124;-85
2022/01/11 06:25:30;;;;;;;1.00;1.00;;;;;;;-10.08;77.12;100042.66;5047482;28;20077;-85
2022/01/11 06:27:58;;;;;;;1.10;1.10;;;;;;;-10.11;77.21;100040.25;5038246;28;20068;-84
2022/01/11 06:30:26;;;;;;;0.95;0.95;;;;;;;-10.10;76.80;100043.69;5036303;28;20128;-83
2022/01/11 06:32:54;;;;;;;1.10;1.10;;;;;;;-10.12;76.75;100049.00;5050691;28;20048;-83
2022/01/11 06:35:23;;;;;;;1.40;1.30;;;;;;;-10.15;76.46;100048.31;5028888;28;20045;-84
2022/01/11 06:37:52;;;;;;;1.23;1.17;;;;;;;-10.15;76.44;100062.25;5029950;28;20064;-83
2022/01/11 06:40:21;;;;;;;1.27;1.20;;;;;;;-10.19;75.94;100065.94;5051459;28;20560;-85
2022/01/11 06:42:53;;;;;;;1.30;1.20;;;;;;;-10.21;75.83;100069.56;5023644;28;20092;-85
2022/01/11 06:45:22;;;;;;;1.35;1.25;;;;;;;-10.21;76.03;100070.41;5017617;28;20052;-84
2022/01/11 06:47:52;;;;;;;1.30;1.20;;;;;;;-10.22;76.26;100073.97;5019976;28;20049;-84
2022/01/11 06:50:19;;;;;;;1.40;1.30;;;;;;;-10.28;76.18;100059.53;5004975;28;20049;-86
2022/01/11 06:52:50;;;;;;;1.48;1.38;;;;;;;-10.38;76.04;100068.78;5045537;28;20053;-83
2022/01/11 06:55:19;;;;;;;1.17;1.17;;;;;;;-10.53;75.93;100078.31;5030902;28;20103;-84
2022/01/11 06:57:47;;;;;;;1.10;1.10;;;;;;;-10.52;76.27;100059.09;4349000;28;10021135;-85
2022/01/11 07:00:16;;;;;;;1.30;1.20;;;;;;;-10.39;76.60;100066.25;5029636;28;20067;-84
2022/01/11 07:02:50;;;;;;;1.40;1.30;;;;;;;-10.29;76.49;100068.25;5015415;28;20045;-83
2022/01/11 07:05:37;;;;;;;1.50;1.40;;;;;;;-10.33;76.24;100073.75;5047168;28;20044;-83
2022/01/11 07:08:05;;;;;;;1.50;1.40;;;;;;;-10.35;76.05;100067.78;5028154;28;20049;-84
2022/01/11 07:10:33;;;;;;;1.45;1.35;;;;;;;-10.38;75.93;100067.94;5014296;28;20156;-82
2022/01/11 07:13:02;;;;;;;1.17;1.17;;;;;;;-10.40;75.76;100069.81;5022770;28;20316;-84
2022/01/11 07:15:30;;;;;;;1.40;1.30;;;;;;;-10.42;75.76;100071.66;5025024;28;20037;-84
2022/01/11 07:18:04;;;;;;;1.30;1.20;;;;;;;-10.40;75.43;100085.47;5026465;28;20099;-84
2022/01/11 07:20:31;;;;;;;1.10;1.10;;;;;;;-10.43;75.36;100080.41;5026527;28;20048;-85
2022/01/11 07:23:00;;;;;;;1.58;1.48;;;;;;;-10.40;75.38;100086.31;5011747;28;20077;-85
2022/01/11 07:25:32;;;;;;;1.05;1.05;;;;;;;-10.44;75.13;100091.78;5026597;28;20136;-86
2022/01/11 07:28:04;;;;;;;1.35;1.25;;;;;;;-10.47;75.03;100079.72;5028021;28;20069;-85
2022/01/11 07:30:33;;;;;;;1.08;1.08;;;;;;;-10.44;74.96;100079.56;5014076;28;20049;-86
2022/01/11 07:33:00;;;;;;;1.50;1.40;;;;;;;-10.49;75.11;100092.84;5010853;28;20419;-86
2022/01/11 07:35:29;;;;;;;1.38;1.27;;;;;;;-10.68;74.53;100089.59;5043537;28;20576;-86
2022/01/11 07:37:58;;;;;;;1.45;1.35;;;;;;;-10.75;74.57;100096.88;5042241;28;20389;-83
2022/01/11 07:40:26;;;;;;;1.60;1.50;;;;;;;-10.79;74.65;100097.13;5026212;28;20080;-86
2022/01/11 07:43:00;;;;;;;1.40;1.30;;;;;;;-10.64;74.74;100103.28;5011394;28;20049;-83
2022/01/11 07:45:43;;;;;;;1.30;1.20;;;;;;;-10.56;74.53;100095.88;5040052;28;20061;-87
2022/01/11 07:48:13;;;;;;;1.17;1.17;;;;;;;-10.53;74.26;100106.16;5025067;28;20050;-87
2022/01/11 07:50:47;;;;;;;1.30;1.20;;;;;;;-10.52;73.93;100111.28;5029017;28;20057;-86
2022/01/11 07:53:15;;;;;;;1.50;1.40;;;;;;;-10.52;73.78;100113.91;5015712;28;20045;-90
2022/01/11 07:55:48;;;;;;;1.50;1.40;;;;;;;-10.57;73.26;100125.53;5027837;28;20705;-87
2022/01/11 07:58:18;;;;;;;1.40;1.30;;;;;;;-10.67;73.17;100130.38;5026564;28;20175;-85
2022/01/11 08:00:46;;;;;;;1.40;1.30;;;;;;;-10.81;73.02;100118.09;5026194;28;20063;-86
2022/01/11 08:03:16;;;;;;;1.30;1.20;;;;;;;-11.04;72.60;100119.28;5026507;28;20072;-83
2022/01/11 08:05:55;;;;;;;1.30;1.20;;;;;;;-11.21;72.99;100127.16;5000186;28;20041;-83
2022/01/11 08:08:25;;;;;;;1.13;1.13;;;;;;;-11.19;72.98;100126.16;5014298;28;20037;-85
2022/01/11 08:10:55;;;;;;;1.40;1.30;;;;;;;-11.19;72.79;100128.78;5017758;28;20045;-83
2022/01/11 08:13:24;;;;;;;1.50;1.40;;;;;;;-11.19;72.53;100127.91;5032952;28;20049;-85
2022/01/11 08:15:51;;;;;;;1.40;1.30;;;;;;;-11.14;72.21;100126.78;5039374;28;20051;-84
2022/01/11 08:18:19;;;;;;;1.60;1.50;;;;;;;-11.00;72.07;100131.25;5027241;28;20049;-81
2022/01/11 08:20:48;;;;;;;1.80;1.70;;;;;;;-10.76;71.60;100136.97;5024635;28;20132;-82
2022/01/11 08:23:17;;;;;;;1.80;1.70;;;;;;;-10.40;71.17;100137.66;5027105;28;20036;-81
2022/01/11 08:25:44;;;;;;;1.60;1.50;;;;;;;-10.14;69.16;100144.03;5021144;28;20435;-81
2022/01/11 08:28:13;;;;;;;1.60;1.50;;;;;;;-10.17;68.63;100142.44;5021361;28;20469;-82
2022/01/11 08:30:46;;;;;;;;;;;;;;;-10.44;68.34;100141.34;5010514;28;20056;-83
2022/01/11 08:33:16;;;;;;;1.60;1.50;;;;;;;-10.66;68.81;100142.50;5028711;28;19924;-84
2022/01/11 08:35:46;;;;;;;1.60;1.50;;;;;;;-10.47;69.14;100148.44;5042797;28;20499;-83
2022/01/11 08:38:16;;;;;;;1.90;1.80;;;;;;;-10.01;68.30;100149.41;5028239;28;20457;-83
2022/01/11 08:40:47;;;;;;;1.10;1.10;;;;;;;-9.77;67.33;100148.03;5027364;28;20064;-82
2022/01/11 08:43:15;;;;;;;1.77;1.67;;;;;;;-9.67;66.84;100146.56;5044216;28;20063;-82
2022/01/11 08:45:44;;;;;;;1.50;1.40;;;;;;;-9.55;66.67;100144.16;5025130;28;20052;-83
2022/01/11 08:48:14;;;;;;;1.30;1.20;;;;;;;-9.04;65.98;100152.50;5028794;28;20049;-82
2022/01/11 08:51:01;;;;;;;1.33;1.23;;;;;;;-9.09;65.45;100144.91;5030932;28;20076;-84
2022/01/11 08:53:30;;;;;;;1.40;1.30;;;;;;;-9.64;65.78;100148.16;5042911;28;20053;-82
2022/01/11 08:56:17;;;;;;;1.40;1.30;;;;;;;-10.01;66.90;100152.00;5025613;28;20057;-87
2022/01/11 08:58:45;;;;;;;1.38;1.27;;;;;;;-10.19;67.58;100146.88;5014249;28;20095;-87
2022/01/11 09:01:23;;;;;;;1.30;1.20;;;;;;;-10.31;68.03;100148.41;5024002;28;20049;-82
2022/01/11 09:03:52;;;;;;;1.30;1.20;;;;;;;-10.42;67.96;100160.41;5031669;28;20037;-83
2022/01/11 09:06:21;;;;;;;1.30;1.20;;;;;;;-10.51;68.56;100152.09;5024327;28;20056;-85
2022/01/11 09:09:10;;;;;;;1.60;1.50;;;;;;;-10.57;68.42;100155.06;5021466;28;20079;-84
2022/01/11 09:11:37;;;;;;;1.25;1.20;;;;;;;-10.60;68.41;100159.63;5023471;28;20127;-84
2022/01/11 09:14:05;;;;;;;1.33;1.23;;;;;;;-10.59;68.80;100161.28;5041676;28;20080;-82
2022/01/11 09:16:36;;;;;;;1.10;1.10;;;;;;;-10.68;68.52;100157.41;5038229;28;20061;-83
2022/01/11 09:19:12;;;;;;;1.40;1.30;;;;;;;-10.63;68.88;100165.84;5031453;28;20049;-86
2022/01/11 09:21:39;;;;;;;1.40;1.30;;;;;;;-10.45;68.68;100155.34;5019353;28;20052;-84
2022/01/11 09:24:09;;;;;;;1.30;1.20;;;;;;;-10.58;68.29;100157.75;5034807;28;20589;-84
2022/01/11 09:26:37;;;;;;;1.50;1.40;;;;;;;-10.70;67.83;100154.03;5042787;28;20053;-87
2022/01/11 09:29:04;;;;;;;1.60;1.50;;;;;;;-10.71;67.65;100160.16;4997530;28;20049;-84
2022/01/11 09:31:32;;;;;;;1.50;1.40;;;;;;;-10.53;67.39;100163.56;5044671;28;20056;-84
2022/01/11 09:34:03;;;;;;;1.70;1.60;;;;;;;-10.31;66.90;100169.31;5018566;28;20125;-86
2022/01/11 09:36:32;;;;;;;1.77;1.67;;;;;;;-10.13;66.25;100166.59;5038129;28;20079;-86
2022/01/11 09:39:01;;;;;;;1.50;1.40;;;;;;;-10.19;66.37;100167.78;5030256;28;20055;-83
2022/01/11 09:41:29;;;;;;;1.40;1.30;;;;;;;-10.35;67.00;100175.63;5041434;28;20049;-85
2022/01/11 09:43:58;;;;;;;1.40;1.30;;;;;;;-10.40;67.24;100167.22;5012232;28;20103;-85
2022/01/11 09:46:26;;;;;;;1.10;1.10;;;;;;;-10.42;66.48;100168.22;5023402;28;20454;-86
2022/01/11 09:48:54;;;;;;;1.58;1.48;;;;;;;-10.54;66.24;100178.38;5027738;28;20052;-85
2022/01/11 09:51:24;;;;;;;1.50;1.40;;;;;;;-10.33;66.41;100170.31;5041907;28;20045;-90
2022/01/11 09:53:54;;;;;;;1.33;1.27;;;;;;;-10.10;65.47;100172.50;5034411;28;20142;-85
2022/01/11 09:56:23;;;;;;;1.40;1.30;;;;;;;-9.68;64.94;100173.63;5028090;28;20049;-83
2022/01/11 09:58:51;;;;;;;1.63;1.52;;;;;;;-9.68;64.75;100173.63;5040151;28;20049;-85
2022/01/11 10:01:39;;;;;;;1.75;1.65;;;;;;;-9.94;64.70;100177.72;5056596;28;20064;-92
2022/01/11 10:04:12;;;;;;;1.40;1.30;;;;;;;-10.10;64.88;100182.94;5053928;28;20120;-83
2022/01/11 10:07:04;;;;;;;1.17;1.17;;;;;;;-9.97;64.83;100182.28;5028299;28;20049;-85
2022/01/11 10:09:43;;;;;;;1.60;1.50;;;;;;;-9.99;64.93;100181.50;5028952;28;20733;-84
2022/01/11 10:12:13;;;;;;;1.38;1.27;;;;;;;-10.01;64.99;100185.97;5034411;28;20135;-82
2022/01/11 10:14:56;;;;;;;1.40;1.30;;;;;;;-10.21;64.76;100187.06;5040055;28;20053;-85
2022/01/11 10:17:27;;;;;;;1.70;1.60;;;;;;;-10.34;65.14;100184.31;5012246;28;20044;-83
2022/01/11 10:20:16;;;;;;;1.40;1.30;;;;;;;-10.35;65.04;100195.69;5025670;28;20072;-86
2022/01/11 10:23:13;;;;;;;1.60;1.50;;;;;;;-10.52;65.49;100193.97;5041880;28;20064;-81
2022/01/11 10:25:49;;;;;;;1.55;1.45;;;;;;;-10.23;66.14;100194.97;5021307;28;20048;-82
2022/01/11 10:28:34;;;;;;;1.30;1.20;;;;;;;-10.19;65.82;100196.50;5044746;28;20052;-84
2022/01/11 10:31:02;;;;;;;1.40;1.30;;;;;;;-10.30;65.40;100189.28;5040155;28;20130;-84
2022/01/11 10:33:33;;;;;;;1.23;1.20;;;;;;;-10.65;65.51;100196.38;5014465;28;20509;-82
2022/01/11 10:36:01;;;;;;;1.50;1.40;;;;;;;-10.74;66.33;100202.06;5032151;28;20094;-81
2022/01/11 10:38:30;;;;;;;1.35;1.25;;;;;;;-10.60;66.78;100199.59;5048106;28;20053;-86
2022/01/11 10:41:04;;;;;;;1.38;1.27;;;;;;;-10.56;66.81;100200.25;5024396;28;20123;-86
2022/01/11 10:43:41;;;;;;;1.50;1.40;;;;;;;-10.76;66.80;100203.91;5020737;28;20046;-84
2022/01/11 10:46:13;;;;;;;1.30;1.20;;;;;;;-10.79;67.22;100198.84;5027040;28;20048;-84
2022/01/11 10:48:44;;;;;;;1.45;1.35;;;;;;;-10.84;67.12;100201.69;5012481;28;20077;-85
2022/01/11 10:51:14;;;;;;;1.20;1.17;;;;;;;-10.98;67.20;100199.81;5018981;28;20488;-85
2022/01/11 10:53:49;;;;;;;1.48;1.38;;;;;;;-11.15;67.29;100199.81;5022820;28;20072;-83
2022/01/11 10:56:20;;;;;;;1.25;1.20;;;;;;;-11.39;67.41;100204.50;5030985;28;20060;-84
2022/01/11 10:59:05;;;;;;;1.10;1.10;;;;;;;-11.52;67.81;100196.44;5032538;28;20075;-82
2022/01/11 11:01:32;;;;;;;1.60;1.50;;;;;;;-11.50;67.97;100212.00;5033618;28;20151;-88
2022/01/11 11:04:02;;;;;;;1.60;1.50;;;;;;;-11.57;68.19;100208.84;5025455;28;20041;-84
2022/01/11 11:06:30;;;;;;;1.38;1.27;;;;;;;-11.63;67.86;100207.38;5030113;28;20049;-84
2022/01/11 11:08:57;;;;;;;1.50;1.40;;;;;;;-11.63;68.10;100206.53;5030495;28;20427;-84
2022/01/11 11:11:33;;;;;;;1.60;1.50;;;;;;;-11.51;68.25;100200.75;5047458;28;20602;-85
2022/01/11 11:14:18;;;;;;;;;;;;;;;-11.51;67.95;100213.78;5026404;28;20106;-85
2022/01/11 11:17:01;;;;;;;1.55;1.45;;;;;;;-11.54;67.68;100215.66;5041261;28;19925;-83
2022/01/11 11:19:55;;;;;;;1.60;1.50;;;;;;;-11.68;67.76;100224.16;5013973;28;20110;-81
2022/01/11 11:22:24;;;;;;;1.70;1.60;;;;;;;-11.67;68.15;100218.03;5024951;28;20057;-81
2022/01/11 11:24:53;;;;;;;1.70;1.60;;;;;;;-11.59;68.13;100213.31;5020241;28;20072;-84
2022/01/11 11:27:22;;;;;;;1.48;1.38;;;;;;;-11.69;68.03;100227.69;4993644;28;20060;-81
2022/01/11 11:29:52;;;;;;;1.52;1.42;;;;;;;-11.71;68.34;100232.13;5042809;28;20079;-82
2022/01/11 11:32:20;;;;;;;1.40;1.30;;;;;;;-11.64;68.50;100231.75;5046679;28;20053;-81
2022/01/11 11:34:51;;;;;;;1.52;1.42;;;;;;;-11.76;68.86;100236.72;5045493;28;20448;-85
2022/01/11 11:37:34;;;;;;;1.63;1.52;;;;;;;-11.72;68.91;100243.44;5042225;28;20068;-83
2022/01/11 11:40:16;;;;;;;1.40;1.30;;;;;;;-11.65;69.05;100240.47;5042191;28;20049;-84
2022/01/11 11:42:45;;;;;;;1.60;1.50;;;;;;;-11.61;68.71;100249.00;5033147;28;20049;-83
2022/01/11 11:45:18;;;;;;;1.27;1.20;;;;;;;-11.62;68.57;100240.34;5031548;28;20065;-83
2022/01/11 11:47:46;;;;;;;1.40;1.30;;;;;;;-11.68;68.40;100251.03;5041187;28;20064;-84
2022/01/11 11:50:16;;;;;;;1.60;1.50;;;;;;;-11.72;68.31;100253.84;5043755;28;20550;-84
2022/01/11 11:52:51;;;;;;;1.00;1.00;;;;;;;-11.75;68.77;100254.00;5046578;28;20396;-84
2022/01/11 11:55:25;;;;;;;1.40;1.30;;;;;;;-11.89;68.43;100263.34;5044502;28;20049;-84
2022/01/11 11:57:57;;;;;;;1.50;1.40;;;;;;;-12.10;67.99;100248.72;5050474;28;20053;-83
2022/01/11 12:00:26;;;;;;;1.50;1.40;;;;;;;-12.05;68.82;100251.94;5050869;28;20047;-83
2022/01/11 12:02:57;;;;;;;1.60;1.50;;;;;;;-12.08;68.91;100246.88;5033522;28;20360;-83
2022/01/11 12:05:47;;;;;;;1.40;1.30;;;;;;;-12.10;69.11;100253.91;5036299;28;20056;-83
2022/01/11 12:08:32;;;;;;;1.60;1.50;;;;;;;-12.12;69.06;100255.78;5043417;28;20057;-85
2022/01/11 12:11:09;;;;;;;;;;;;;;;-12.33;68.71;100257.56;5047501;28;20052;-85
2022/01/11 12:13:38;;;;;;;1.60;1.50;;;;;;;-12.46;68.70;100259.88;5049498;28;20322;-85
2022/01/11 12:16:26;;;;;;;1.50;1.40;;;;;;;-12.69;68.93;100250.47;5023216;28;20565;-83
2022/01/11 12:18:55;;;;;;;1.52;1.42;;;;;;;-12.64;69.45;100261.53;5031647;28;20088;-86
2022/01/11 12:21:25;;;;;;;1.52;1.42;;;;;;;-12.66;69.61;100264.22;5043967;28;20867;-86
2022/01/11 12:23:57;;;;;;;1.40;1.30;;;;;;;-12.77;69.59;100265.56;5051629;28;20056;-87
2022/01/11 12:26:30;;;;;;;1.40;1.30;;;;;;;-12.87;69.62;100265.97;5038908;28;20062;-85
2022/01/11 12:29:04;;;;;;;1.50;1.40;;;;;;;-12.79;70.08;100273.44;5041142;28;20049;-85
2022/01/11 12:31:39;;;;;;;1.67;1.58;;;;;;;-12.76;70.26;100275.91;5053796;28;20049;-84
2022/01/11 12:34:10;;;;;;;;;;;;;;;-12.64;70.42;100289.28;5050586;28;20059;-86
2022/01/11 12:36:52;;;;;;;1.50;1.40;;;;;;;-12.71;70.23;100281.78;5042754;28;19971;-85
2022/01/11 12:39:21;;;;;;;1.40;1.30;;;;;;;-12.85;70.22;100294.50;5046140;28;20086;-86
2022/01/11 12:41:49;;;;;;;1.65;1.55;;;;;;;-12.97;69.98;100298.44;5042684;28;20041;-83
2022/01/11 12:47:08;;;;;;;1.35;1.25;;;;;;;-13.32;70.09;100295.59;5031960;28;20103;-85
2022/01/11 12:49:40;;;;;;;1.50;1.40;;;;;;;-13.32;70.50;100303.38;5022170;28;20052;-84
2022/01/11 12:52:12;;;;;;;1.52;1.42;;;;;;;-13.21;70.80;100305.50;5025392;28;20053;-83
2022/01/11 12:54:47;;;;;;;1.40;1.30;;;;;;;-13.10;71.01;100302.47;5034334;28;20579;-85
2022/01/11 12:57:21;;;;;;;1.52;1.42;;;;;;;-13.06;70.75;100306.66;5037043;28;20056;-86
2022/01/11 12:59:53;;;;;;;1.65;1.55;;;;;;;-13.22;70.32;100308.16;5040071;28;20049;-86
2022/01/11 13:02:26;;;;;;;1.38;1.27;;;;;;;-13.34;70.38;100314.72;5042930;28;20153;-84
2022/01/11 13:04:57;;;;;;;1.52;1.42;;;;;;;-13.41;70.56;100308.94;5038810;28;20060;-83
2022/01/11 13:07:27;;;;;;;1.60;1.50;;;;;;;-13.45;71.09;100319.50;5037314;28;20068;-84
2022/01/11 13:10:03;;;;;;;1.80;1.70;;;;;;;-13.37;71.12;100323.47;5042882;28;20534;-82
2022/01/11 13:12:50;;;;;;;1.50;1.40;;;;;;;-13.33;71.20;100326.81;5027367;28;20135;-84
2022/01/11 13:15:42;;;;;;;1.70;1.60;;;;;;;-13.33;71.31;100327.66;5043887;28;20111;-83
2022/01/11 13:18:18;;;;;;;1.52;1.42;;;;;;;-13.33;71.58;100332.84;5039727;28;20107;-84
2022/01/11 13:21:01;;;;;;;1.60;1.50;;;;;;;-13.31;71.66;100335.41;5038397;28;20521;-85
2022/01/11 13:23:45;;;;;;;1.55;1.45;;;;;;;-13.29;71.65;100338.78;5047510;28;20059;-84
2022/01/11 13:26:14;;;;;;;1.80;1.70;;;;;;;-13.34;71.52;100340.69;5048932;28;20081;-84
2022/01/11 13:28:55;;;;;;;1.50;1.40;;;;;;;-13.36;71.61;100330.38;5031331;28;20438;-83
2022/01/11 13:31:31;;;;;;;1.50;1.40;;;;;;;-13.37;71.65;100336.47;5045009;28;20504;-85
2022/01/11 13:34:07;;;;;;;1.50;1.40;;;;;;;-13.40;71.59;100341.78;5040782;28;20096;-83
2022/01/11 13:36:45;;;;;;;1.42;1.33;;;;;;;-13.41;71.51;100339.28;5039465;28;20542;-83
2022/01/11 13:39:19;;;;;;;1.50;1.40;;;;;;;-13.43;71.51;100346.28;5044266;28;20048;-82
2022/01/11 13:41:48;;;;;;;1.50;1.40;;;;;;;-13.52;71.42;100342.25;5047593;28;20080;-83
2022/01/11 13:44:21;;;;;;;1.40;1.30;;;;;;;-13.55;71.60;100348.41;5046669;28;20403;-83
2022/01/11 13:46:49;;;;;;;1.50;1.40;;;;;;;-13.54;71.76;100342.34;5031620;28;20142;-82
2022/01/11 13:49:20;;;;;;;1.58;1.48;;;;;;;-13.52;71.55;100347.44;5048001;28;20156;-82
2022/01/11 13:51:53;;;;;;;1.30;1.20;;;;;;;-13.56;71.03;100351.09;5026847;28;20041;-82
2022/01/11 13:54:22;;;;;;;1.55;1.45;;;;;;;-13.55;71.09;100351.00;5030740;28;20144;-82
2022/01/11 13:56:50;;;;;;;1.50;1.40;;;;;;;-13.48;71.56;100354.22;5045763;28;20056;-83
2022/01/11 13:59:27;;;;;;;1.50;1.40;;;;;;;-13.42;71.52;100353.16;5034168;28;20140;-79
2022/01/11 14:02:18;;;;;;;1.45;1.35;;;;;;;-13.34;71.63;100348.50;5047987;28;20049;-85
2022/01/11 14:04:50;;;;;;;1.38;1.27;;;;;;;-13.36;71.34;100358.97;5031668;28;20102;-83
2022/01/11 14:07:27;;;;;;;1.30;1.20;;;;;;;-13.36;71.46;100356.34;5054018;28;20049;-81
2022/01/11 14:10:09;;;;;;;1.42;1.33;;;;;;;-13.33;71.33;100360.59;5054972;28;20503;-84
2022/01/11 14:13:07;;;;;;;1.30;1.20;;;;;;;-13.29;71.63;100366.50;5060047;28;20052;-83
2022/01/11 14:15:35;;;;;;;1.50;1.40;;;;;;;-13.28;71.47;100360.41;5005379;28;20062;-84
2022/01/11 14:18:10;;;;;;;1.50;1.40;;;;;;;-13.25;71.52;100355.06;4990321;28;20093;-82
2022/01/11 14:20:37;;;;;;;1.42;1.33;;;;;;;-13.27;71.67;100360.34;4990267;28;20080;-83
2022/01/11 14:23:16;;;;;;;1.50;1.40;;;;;;;-13.24;71.46;100368.00;4975885;28;20070;-84
2022/01/11 14:25:52;;;;;;;1.60;1.50;;;;;;;-13.29;71.73;100361.28;5001740;28;20046;-82
2022/01/11 14:28:24;;;;;;;1.40;1.30;;;;;;;-13.33;71.62;100364.03;5002630;28;20054;-83
2022/01/11 14:30:59;;;;;;;1.48;1.38;;;;;;;-13.33;71.74;100370.97;4995467;28;20468;-83
2022/01/11 14:33:30;;;;;;;1.48;1.38;;;;;;;-13.37;71.84;100365.03;4993247;28;20053;-81
2022/01/11 14:36:01;;;;;;;1.65;1.55;;;;;;;-13.35;71.99;100365.00;4977997;28;20054;-83
2022/01/11 14:38:37;;;;;;;1.40;1.30;;;;;;;-13.35;71.87;100375.38;5008326;28;20148;-81
2022/01/11 14:41:07;;;;;;;1.40;1.30;;;;;;;-13.38;71.52;100360.75;4994975;28;20114;-83
2022/01/11 14:43:36;;;;;;;1.50;1.40;;;;;;;-13.41;71.87;100362.66;4994706;28;20054;-84
2022/01/11 14:46:17;;;;;;;1.70;1.60;;;;;;;-13.34;72.08;100367.53;5010881;28;20145;-83
2022/01/11 14:48:45;;;;;;;1.65;1.55;;;;;;;-13.29;72.28;100366.50;5011371;28;20057;-83
2022/01/11 14:51:16;;;;;;;1.60;1.50;;;;;;;-13.28;72.30;100366.44;5004776;28;20077;-84
2022/01/11 14:53:49;;;;;;;1.40;1.30;;;;;;;-13.26;72.49;100354.22;4704861;28;9999760;-83
2022/01/11 14:56:21;;;;;;;1.50;1.40;;;;;;;-13.28;72.50;100366.44;5032591;28;20159;-82
2022/01/11 14:59:09;;;;;;;1.42;1.33;;;;;;;-13.28;72.59;100374.25;5049834;28;20055;-84
2022/01/11 15:01:53;;;;;;;1.15;1.13;;;;;;;-13.27;72.80;100364.69;5039692;28;20462;-84
2022/01/11 15:04:31;;;;;;;1.58;1.48;;;;;;;-13.27;72.89;100370.72;5038738;28;20049;-83
2022/01/11 15:07:04;;;;;;;1.60;1.50;;;;;;;-13.25;72.96;100368.03;5024827;28;20110;-83
2022/01/11 15:09:37;;;;;;;1.42;1.33;;;;;;;-13.23;73.10;100372.28;5042609;28;20057;-82
2022/01/11 15:12:18;;;;;;;1.38;1.27;;;;;;;-13.17;73.13;100363.38;5030622;28;20415;-84
2022/01/11 15:14:48;;;;;;;1.50;1.40;;;;;;;-13.13;73.38;100363.22;5055841;28;20139;-82
2022/01/11 15:17:16;;;;;;;1.50;1.40;;;;;;;-13.10;73.33;100364.84;5054277;28;20131;-85
2022/01/11 15:19:43;;;;;;;1.38;1.27;;;;;;;-13.12;73.34;100351.91;5051170;28;20075;-85
2022/01/11 15:22:13;;;;;;;1.55;1.45;;;;;;;-13.11;73.29;100358.81;5030902;28;20053;-86
2022/01/11 15:24:41;;;;;;;1.60;1.50;;;;;;;-13.08;73.33;100364.78;5030382;28;20511;-85
2022/01/11 15:27:11;;;;;;;1.50;1.40;;;;;;;-13.05;73.45;100368.09;5021260;28;20084;-86
2022/01/11 15:29:38;;;;;;;1.60;1.50;;;;;;;-12.99;73.38;100367.00;5027195;28;20070;-85
2022/01/11 15:32:07;;;;;;;1.48;1.38;;;;;;;-12.97;73.35;100370.38;5034813;28;20495;-85
2022/01/11 15:34:34;;;;;;;1.40;1.30;;;;;;;-12.99;73.42;100372.19;5020185;28;20049;-83
2022/01/11 15:37:02;;;;;;;1.40;1.30;;;;;;;-12.98;73.55;100376.50;5030832;28;20055;-85
2022/01/11 15:39:36;;;;;;;1.35;1.25;;;;;;;-12.94;73.47;100375.44;5026691;28;20107;-84
2022/01/11 15:42:05;;;;;;;1.58;1.48;;;;;;;-13.04;73.41;100358.53;5042053;28;20045;-88
2022/01/11 15:44:35;;;;;;;1.50;1.40;;;;;;;-12.94;73.39;100360.69;5035293;28;20364;-89
2022/01/11 15:47:10;;;;;;;1.70;1.60;;;;;;;-12.92;73.74;100371.03;5021727;28;20529;-87
2022/01/11 15:49:40;;;;;;;1.60;1.50;;;;;;;-12.86;73.45;100370.81;5015953;28;20307;-86
2022/01/11 15:52:08;;;;;;;1.17;1.15;;;;;;;-12.95;73.50;100366.81;5023331;28;20140;-85
2022/01/11 15:54:35;;;;;;;1.50;1.40;;;;;;;-12.83;73.50;100372.44;5052352;28;20044;-84
2022/01/11 15:57:03;;;;;;;1.30;1.20;;;;;;;-12.81;73.59;100366.28;5021983;28;20049;-86
2022/01/11 15:59:31;;;;;;;1.40;1.30;;;;;;;-12.78;73.31;100371.34;5008694;28;20088;-83
2022/01/11 16:02:01;;;;;;;1.40;1.30;;;;;;;-12.80;73.44;100364.50;5048596;28;20400;-85
2022/01/11 16:04:28;;;;;;;1.33;1.23;;;;;;;-12.75;73.54;100376.41;5046919;28;20041;-84
2022/01/11 16:07:05;;;;;;;1.60;1.50;;;;;;;-12.72;73.45;100354.63;5036864;28;20033;-85
2022/01/11 16:09:41;;;;;;;1.50;1.40;;;;;;;-12.76;73.53;100353.94;5007566;28;20052;-88